createdAt,value
2018-05-24T00:00:51.441Z,24.66
2018-05-24T00:01:51.468Z,24.58
2018-05-24T00:02:51.496Z,24.62
2018-05-24T00:03:51.541Z,24.63
2018-05-24T00:04:51.552Z,24.66
2018-05-24T00:05:51.580Z,24.65
2018-05-24T00:06:51.606Z,24.71
2018-05-24T00:07:51.678Z,24.55
2018-05-24T00:08:51.666Z,24.68
2018-05-24T00:09:51.690Z,24.56
2018-05-24T00:10:51.719Z,24.65
2018-05-24T00:11:51.746Z,24.65
2018-05-24T00:12:51.773Z,24.71
2018-05-24T00:13:51.802Z,24.62
2018-05-24T00:14:51.902Z,24.65
2018-05-24T00:15:51.857Z,24.65
2018-05-24T00:16:51.888Z,24.65
2018-05-24T00:17:51.913Z,24.62
2018-05-24T00:18:51.943Z,24.63
2018-05-24T00:19:51.967Z,24.63
2018-05-24T00:20:51.995Z,24.68
2018-05-24T00:21:52.022Z,24.63
2018-05-24T00:22:52.050Z,24.66
2018-05-24T00:23:52.078Z,24.61
2018-05-24T00:24:52.106Z,24.66
2018-05-24T00:25:52.133Z,24.69
2018-05-24T00:26:52.160Z,24.56
2018-05-24T00:27:52.191Z,24.63
2018-05-24T00:28:52.216Z,24.59
2018-05-24T00:29:52.279Z,24.61
2018-05-24T00:30:52.271Z,24.59
2018-05-24T00:31:52.299Z,24.62
2018-05-24T00:32:52.326Z,24.62
2018-05-24T00:33:52.355Z,24.56
2018-05-24T00:34:52.381Z,24.59
2018-05-24T00:35:52.409Z,24.50
2018-05-24T00:36:52.437Z,24.62
2018-05-24T00:37:52.465Z,24.55
2018-05-24T00:38:52.491Z,24.58
2018-05-24T00:39:52.520Z,24.53
2018-05-24T00:40:52.548Z,24.56
2018-05-24T00:41:52.575Z,24.63
2018-05-24T00:42:52.602Z,24.63
2018-05-24T00:43:52.630Z,24.61
2018-05-24T00:44:52.658Z,24.59
2018-05-24T00:45:52.686Z,24.61
2018-05-24T00:46:52.716Z,24.62
2018-05-24T00:47:52.743Z,24.61
2018-05-24T00:48:52.769Z,24.55
2018-05-24T00:49:52.797Z,24.55
2018-05-24T00:50:52.824Z,24.69
2018-05-24T00:51:52.894Z,24.58
2018-05-24T00:52:52.892Z,24.61
2018-05-24T00:53:52.908Z,24.56
2018-05-24T00:54:52.935Z,24.63
2018-05-24T00:55:52.962Z,24.47
2018-05-24T00:56:52.990Z,24.53
2018-05-24T00:57:53.018Z,24.48
2018-05-24T00:58:53.046Z,24.53
2018-05-24T00:59:53.073Z,24.46
2018-05-24T01:00:53.102Z,24.43
2018-05-24T01:01:53.129Z,24.56
2018-05-24T01:02:53.157Z,24.48
2018-05-24T01:03:53.190Z,24.43
2018-05-24T01:04:53.212Z,24.53
2018-05-24T01:05:53.278Z,24.55
2018-05-24T01:06:53.267Z,24.46
2018-05-24T01:07:53.295Z,24.51
2018-05-24T01:08:53.323Z,24.58
2018-05-24T01:09:53.352Z,24.48
2018-05-24T01:10:53.377Z,24.53
2018-05-24T01:11:53.406Z,24.53
2018-05-24T01:12:53.436Z,24.47
2018-05-24T01:13:53.461Z,24.62
2018-05-24T01:14:53.488Z,24.53
2018-05-24T01:15:53.528Z,24.59
2018-05-24T01:16:53.543Z,24.53
2018-05-24T01:17:53.572Z,24.61
2018-05-24T01:18:53.598Z,24.53
2018-05-24T01:19:53.627Z,24.50
2018-05-24T01:20:53.655Z,24.55
2018-05-24T01:21:53.682Z,24.53
2018-05-24T01:22:53.709Z,24.55
2018-05-24T01:23:53.737Z,24.48
2018-05-24T01:24:53.769Z,24.50
2018-05-24T01:25:53.793Z,24.53
2018-05-24T01:26:53.821Z,24.58
2018-05-24T01:27:53.887Z,24.53
2018-05-24T01:28:53.876Z,24.50
2018-05-24T01:29:53.908Z,24.44
2018-05-24T01:30:53.931Z,24.62
2018-05-24T01:31:53.959Z,24.53
2018-05-24T01:32:53.992Z,24.58
2018-05-24T01:33:54.015Z,24.62
2018-05-24T01:34:54.042Z,24.62
2018-05-24T01:35:54.069Z,24.68
2018-05-24T01:36:54.097Z,24.63
2018-05-24T01:37:54.126Z,24.68
2018-05-24T01:38:54.152Z,24.68
2018-05-24T01:39:54.180Z,24.66
2018-05-24T01:40:54.210Z,24.61
2018-05-24T01:41:54.237Z,24.69
2018-05-24T01:42:54.263Z,24.63
2018-05-24T01:43:54.292Z,24.65
2018-05-24T01:44:54.319Z,24.61
2018-05-24T01:45:54.348Z,24.63
2018-05-24T01:46:54.376Z,24.61
2018-05-24T01:47:54.402Z,24.62
2018-05-24T01:48:54.430Z,24.61
2018-05-24T01:49:54.458Z,24.68
2018-05-24T01:50:54.487Z,24.68
2018-05-24T01:51:54.513Z,24.68
2018-05-24T01:52:54.540Z,24.71
2018-05-24T01:53:54.568Z,24.69
2018-05-24T01:54:54.602Z,24.66
2018-05-24T01:55:54.624Z,24.65
2018-05-24T01:56:54.651Z,24.68
2018-05-24T01:57:54.679Z,24.61
2018-05-24T01:58:54.706Z,24.65
2018-05-24T01:59:54.733Z,24.71
2018-05-24T02:00:54.762Z,24.68
2018-05-24T02:01:54.789Z,24.68
2018-05-24T02:02:54.817Z,24.63
2018-05-24T02:03:54.844Z,24.68
2018-05-24T02:04:54.872Z,24.74
2018-05-24T02:05:54.901Z,24.63
2018-05-24T02:06:54.963Z,24.62
2018-05-24T02:07:54.956Z,24.61
2018-05-24T02:08:54.983Z,24.62
2018-05-24T02:09:55.012Z,24.65
2018-05-24T02:10:55.038Z,24.58
2018-05-24T02:11:55.066Z,24.63
2018-05-24T02:12:55.094Z,24.62
2018-05-24T02:13:55.126Z,24.68
2018-05-24T02:14:55.149Z,24.62
2018-05-24T02:15:55.177Z,24.59
2018-05-24T02:16:55.204Z,24.62
2018-05-24T02:17:55.233Z,24.65
2018-05-24T02:18:55.260Z,24.62
2018-05-24T02:19:55.287Z,24.61
2018-05-24T02:20:55.316Z,24.56
2018-05-24T02:21:55.348Z,24.63
2018-05-24T02:22:55.370Z,24.65
2018-05-24T02:23:55.398Z,24.62
2018-05-24T02:24:55.428Z,24.63
2018-05-24T02:25:55.454Z,24.61
2018-05-24T02:26:55.481Z,24.58
2018-05-24T02:27:55.509Z,24.55
2018-05-24T02:28:55.574Z,24.68
2018-05-24T02:29:55.566Z,24.66
2018-05-24T02:30:55.595Z,24.63
2018-05-24T02:31:55.621Z,24.62
2018-05-24T02:32:55.648Z,24.69
2018-05-24T02:33:55.676Z,24.61
2018-05-24T02:34:55.706Z,24.74
2018-05-24T02:35:55.918Z,24.74
2018-05-24T02:36:55.759Z,24.71
2018-05-24T02:37:55.787Z,24.77
2018-05-24T02:38:55.814Z,24.78
2018-05-24T02:39:55.841Z,24.75
2018-05-24T02:40:55.917Z,24.75
2018-05-24T02:41:55.897Z,24.78
2018-05-24T02:42:55.940Z,24.86
2018-05-24T02:43:55.954Z,24.81
2018-05-24T02:44:55.981Z,24.85
2018-05-24T02:45:56.009Z,24.89
2018-05-24T02:46:56.035Z,24.93
2018-05-24T02:47:56.102Z,24.99
2018-05-24T02:48:56.110Z,24.97
2018-05-24T02:49:56.121Z,25.01
2018-05-24T02:50:56.146Z,25.03
2018-05-24T02:51:56.211Z,25.03
2018-05-24T02:52:56.230Z,25.12
2018-05-24T02:53:56.231Z,25.11
2018-05-24T02:54:56.259Z,25.24
2018-05-24T02:55:56.295Z,25.16
2018-05-24T02:56:56.314Z,25.25
2018-05-24T02:57:56.342Z,25.26
2018-05-24T02:58:56.372Z,25.26
2018-05-24T02:59:56.397Z,25.26
2018-05-24T03:00:56.425Z,25.22
2018-05-24T03:01:56.453Z,25.37
2018-05-24T03:02:56.481Z,25.34
2018-05-24T03:03:56.509Z,25.25
2018-05-24T03:04:56.550Z,25.40
2018-05-24T03:05:56.564Z,25.30
2018-05-24T03:06:56.592Z,25.34
2018-05-24T03:07:56.619Z,25.33
2018-05-24T03:08:56.648Z,25.34
2018-05-24T03:09:56.679Z,25.33
2018-05-24T03:10:56.704Z,25.33
2018-05-24T03:11:56.731Z,25.31
2018-05-24T03:12:56.758Z,25.40
2018-05-24T03:13:56.789Z,25.29
2018-05-24T03:15:56.842Z,25.43
2018-05-24T03:16:56.870Z,25.31
2018-05-24T03:17:56.959Z,25.34
2018-05-24T03:18:56.926Z,25.37
2018-05-24T03:19:56.953Z,25.46
2018-05-24T03:20:57.017Z,25.43
2018-05-24T03:21:57.010Z,25.41
2018-05-24T03:22:57.037Z,25.44
2018-05-24T03:23:57.064Z,25.41
2018-05-24T03:24:57.093Z,25.41
2018-05-24T03:25:57.123Z,25.44
2018-05-24T03:26:57.149Z,25.43
2018-05-24T03:27:57.177Z,25.46
2018-05-24T03:28:57.204Z,25.39
2018-05-24T03:29:57.253Z,25.40
2018-05-24T03:30:57.261Z,25.43
2018-05-24T03:31:57.291Z,25.40
2018-05-24T03:32:57.316Z,25.37
2018-05-24T03:33:57.343Z,25.51
2018-05-24T03:34:57.374Z,25.40
2018-05-24T03:35:57.399Z,25.44
2018-05-24T03:36:57.427Z,25.43
2018-05-24T03:37:57.455Z,25.40
2018-05-24T03:38:57.482Z,25.46
2018-05-24T03:39:57.510Z,25.51
2018-05-24T03:40:57.538Z,25.43
2018-05-24T03:41:57.569Z,25.41
2018-05-24T03:42:57.594Z,25.44
2018-05-24T03:43:57.625Z,25.40
2018-05-24T03:44:57.651Z,25.46
2018-05-24T03:45:57.678Z,25.52
2018-05-24T03:46:57.705Z,25.44
2018-05-24T03:47:57.734Z,25.48
2018-05-24T03:48:57.765Z,25.51
2018-05-24T03:49:57.824Z,25.51
2018-05-24T03:50:57.817Z,25.51
2018-05-24T03:51:57.845Z,25.52
2018-05-24T03:52:57.878Z,25.51
2018-05-24T03:53:57.923Z,25.55
2018-05-24T03:54:57.929Z,25.54
2018-05-24T03:55:57.956Z,25.54
2018-05-24T03:56:57.985Z,25.58
2018-05-24T03:57:58.013Z,25.58
2018-05-24T03:58:58.041Z,25.68
2018-05-24T03:59:58.096Z,25.56
2018-05-24T04:00:58.097Z,25.66
2018-05-24T04:01:58.125Z,25.61
2018-05-24T04:02:58.152Z,25.62
2018-05-24T04:03:58.182Z,25.63
2018-05-24T04:04:58.208Z,25.68
2018-05-24T04:05:58.275Z,25.73
2018-05-24T04:06:58.289Z,25.76
2018-05-24T04:07:58.297Z,25.77
2018-05-24T04:08:58.355Z,25.81
2018-05-24T04:09:58.351Z,25.76
2018-05-24T04:10:58.375Z,25.73
2018-05-24T04:11:58.428Z,25.73
2018-05-24T04:12:58.433Z,25.68
2018-05-24T04:13:58.463Z,25.63
2018-05-24T04:14:58.515Z,25.52
2018-05-24T04:15:58.516Z,25.46
2018-05-24T04:16:58.552Z,25.43
2018-05-24T04:17:58.584Z,25.48
2018-05-24T04:18:58.600Z,25.46
2018-05-24T04:19:58.628Z,25.34
2018-05-24T04:20:58.656Z,25.21
2018-05-24T04:21:58.684Z,25.15
2018-05-24T04:22:58.712Z,25.16
2018-05-24T04:23:58.740Z,25.07
2018-05-24T04:24:58.768Z,25.00
2018-05-24T04:25:58.796Z,25.04
2018-05-24T04:26:58.894Z,25.04
2018-05-24T04:27:58.851Z,24.96
2018-05-24T04:28:58.879Z,24.94
2018-05-24T04:29:58.911Z,24.85
2018-05-24T04:30:58.934Z,24.77
2018-05-24T04:31:58.963Z,24.75
2018-05-24T04:32:59.028Z,24.74
2018-05-24T04:33:59.018Z,24.74
2018-05-24T04:34:59.045Z,24.63
2018-05-24T04:35:59.076Z,24.61
2018-05-24T04:36:59.101Z,24.61
2018-05-24T04:37:59.133Z,24.66
2018-05-24T04:38:59.157Z,24.59
2018-05-24T04:39:59.184Z,24.44
2018-05-24T04:40:59.212Z,24.55
2018-05-24T04:41:59.242Z,24.51
2018-05-24T04:42:59.266Z,24.51
2018-05-24T04:43:59.295Z,24.48
2018-05-24T04:44:59.323Z,24.50
2018-05-24T04:45:59.355Z,24.43
2018-05-24T04:46:59.377Z,24.46
2018-05-24T04:47:59.407Z,24.36
2018-05-24T04:48:59.432Z,24.46
2018-05-24T04:49:59.464Z,24.36
2018-05-24T04:50:59.487Z,24.32
2018-05-24T04:51:59.576Z,24.38
2018-05-24T04:52:59.543Z,24.25
2018-05-24T04:53:59.571Z,24.32
2018-05-24T04:54:59.597Z,24.24
2018-05-24T04:55:59.628Z,24.19
2018-05-24T04:56:59.653Z,24.16
2018-05-24T04:57:59.680Z,24.13
2018-05-24T04:58:59.706Z,24.09
2018-05-24T04:59:59.735Z,24.03
2018-05-24T05:00:59.764Z,24.00
2018-05-24T05:01:59.793Z,23.89
2018-05-24T05:02:59.817Z,23.95
2018-05-24T05:03:59.844Z,23.85
2018-05-24T05:04:59.896Z,23.79
2018-05-24T05:05:59.899Z,23.86
2018-05-24T05:06:59.926Z,23.84
2018-05-24T05:07:59.955Z,23.89
2018-05-24T05:08:59.981Z,23.76
2018-05-24T05:10:00.009Z,23.74
2018-05-24T05:11:00.035Z,23.74
2018-05-24T05:12:00.063Z,23.67
2018-05-24T05:13:00.090Z,23.67
2018-05-24T05:14:00.118Z,23.73
2018-05-24T05:15:00.150Z,23.74
2018-05-24T05:16:00.176Z,23.74
2018-05-24T05:17:00.198Z,23.56
2018-05-24T05:18:00.229Z,23.54
2018-05-24T05:19:00.252Z,23.54
2018-05-24T05:20:00.312Z,23.49
2018-05-24T05:21:00.338Z,23.51
2018-05-24T05:22:00.337Z,23.58
2018-05-24T05:23:00.447Z,23.56
2018-05-24T05:24:00.389Z,23.48
2018-05-24T05:25:00.447Z,23.40
2018-05-24T05:26:00.444Z,23.37
2018-05-24T05:27:00.468Z,23.36
2018-05-24T05:28:00.497Z,23.21
2018-05-24T05:29:00.523Z,23.23
2018-05-24T05:30:00.551Z,23.28
2018-05-24T05:31:00.577Z,23.33
2018-05-24T05:32:00.605Z,23.40
2018-05-24T05:33:00.632Z,23.34
2018-05-24T05:34:00.659Z,23.51
2018-05-24T05:35:00.685Z,23.42
2018-05-24T05:36:00.718Z,23.21
2018-05-24T05:37:00.740Z,23.29
2018-05-24T05:38:00.767Z,23.10
2018-05-24T05:39:00.794Z,22.95
2018-05-24T05:40:00.821Z,22.95
2018-05-24T05:41:00.848Z,22.92
2018-05-24T05:42:00.875Z,22.89
2018-05-24T05:43:00.901Z,22.86
2018-05-24T05:44:00.962Z,22.68
2018-05-24T05:45:00.973Z,22.74
2018-05-24T05:46:00.982Z,22.77
2018-05-24T05:47:01.028Z,22.68
2018-05-24T05:48:01.035Z,22.78
2018-05-24T05:49:01.062Z,22.89
2018-05-24T05:50:01.089Z,22.89
2018-05-24T05:51:01.114Z,22.93
2018-05-24T05:52:01.220Z,22.89
2018-05-24T05:53:01.183Z,22.88
2018-05-24T05:54:01.199Z,22.77
2018-05-24T05:55:01.253Z,22.67
2018-05-24T05:56:01.251Z,22.59
2018-05-24T05:57:01.276Z,22.63
2018-05-24T05:58:01.304Z,22.58
2018-05-24T05:59:01.328Z,22.62
2018-05-24T06:00:01.356Z,22.65
2018-05-24T06:01:01.384Z,22.74
2018-05-24T06:02:01.523Z,22.62
2018-05-24T06:03:01.438Z,22.62
2018-05-24T06:04:01.462Z,22.62
2018-05-24T06:05:01.491Z,22.55
2018-05-24T06:06:01.535Z,22.49
2018-05-24T06:07:01.541Z,22.51
2018-05-24T06:08:01.573Z,22.52
2018-05-24T06:09:01.597Z,22.49
2018-05-24T06:10:01.624Z,22.61
2018-05-24T06:11:01.648Z,22.77
2018-05-24T06:12:01.681Z,22.89
2018-05-24T06:13:01.702Z,22.95
2018-05-24T06:14:01.731Z,23.10
2018-05-24T06:15:01.754Z,23.13
2018-05-24T06:16:01.781Z,23.29
2018-05-24T06:17:01.809Z,23.37
2018-05-24T06:18:01.835Z,23.49
2018-05-24T06:19:01.897Z,23.66
2018-05-24T06:20:01.888Z,23.73
2018-05-24T06:21:01.919Z,23.81
2018-05-24T06:22:01.943Z,23.84
2018-05-24T06:23:01.968Z,23.94
2018-05-24T06:24:01.995Z,23.96
2018-05-24T06:25:02.022Z,24.04
2018-05-24T06:26:02.048Z,24.11
2018-05-24T06:27:02.079Z,24.14
2018-05-24T06:28:02.102Z,24.18
2018-05-24T06:29:02.129Z,24.28
2018-05-24T06:30:02.157Z,24.28
2018-05-24T06:31:02.182Z,24.37
2018-05-24T06:32:02.209Z,24.47
2018-05-24T06:33:02.252Z,24.46
2018-05-24T06:34:02.263Z,24.47
2018-05-24T06:35:02.291Z,24.55
2018-05-24T06:36:02.318Z,24.61
2018-05-24T06:37:02.345Z,24.61
2018-05-24T06:38:02.372Z,24.63
2018-05-24T06:39:02.399Z,24.68
2018-05-24T06:40:02.429Z,24.77
2018-05-24T06:41:02.454Z,24.77
2018-05-24T06:42:02.481Z,24.77
2018-05-24T06:43:02.508Z,24.78
2018-05-24T06:44:02.535Z,24.81
2018-05-24T06:45:02.563Z,24.86
2018-05-24T06:46:02.591Z,24.92
2018-05-24T06:47:02.622Z,24.97
2018-05-24T06:48:02.647Z,24.99
2018-05-24T06:49:02.673Z,25.01
2018-05-24T06:50:02.715Z,25.00
2018-05-24T06:51:02.726Z,25.00
2018-05-24T06:52:02.784Z,25.04
2018-05-24T06:53:02.781Z,25.03
2018-05-24T06:54:02.821Z,25.04
2018-05-24T06:55:02.836Z,25.14
2018-05-24T06:56:02.864Z,25.18
2018-05-24T06:57:02.893Z,25.24
2018-05-24T06:58:02.919Z,25.22
2018-05-24T06:59:02.947Z,25.22
2018-05-24T07:00:03.014Z,25.22
2018-05-24T07:01:03.002Z,25.33
2018-05-24T07:02:03.055Z,25.31
2018-05-24T07:03:03.056Z,25.37
2018-05-24T07:04:03.093Z,25.29
2018-05-24T07:05:03.112Z,25.34
2018-05-24T07:06:03.140Z,25.36
2018-05-24T07:07:03.167Z,25.29
2018-05-24T07:08:03.194Z,25.34
2018-05-24T07:09:03.225Z,25.29
2018-05-24T07:10:03.251Z,25.34
2018-05-24T07:11:03.321Z,25.39
2018-05-24T07:12:03.318Z,25.31
2018-05-24T07:13:03.334Z,25.46
2018-05-24T07:14:03.364Z,25.41
2018-05-24T07:15:03.388Z,25.31
2018-05-24T07:16:03.416Z,25.41
2018-05-24T07:17:03.445Z,25.36
2018-05-24T07:18:03.473Z,25.40
2018-05-24T07:19:03.505Z,25.52
2018-05-24T07:20:03.531Z,25.51
2018-05-24T07:21:03.555Z,25.54
2018-05-24T07:22:03.583Z,25.44
2018-05-24T07:23:03.611Z,25.44
2018-05-24T07:24:03.638Z,25.46
2018-05-24T07:25:03.666Z,25.52
2018-05-24T07:26:03.699Z,25.44
2018-05-24T07:27:03.726Z,25.43
2018-05-24T07:28:03.769Z,25.49
2018-05-24T07:29:03.778Z,25.44
2018-05-24T07:30:03.806Z,25.44
2018-05-24T07:31:03.837Z,25.54
2018-05-24T07:32:03.868Z,25.51
2018-05-24T07:33:03.893Z,25.54
2018-05-24T07:34:03.919Z,25.52
2018-05-24T07:35:03.951Z,25.52
2018-05-24T07:36:03.982Z,25.49
2018-05-24T07:37:04.002Z,25.55
2018-05-24T07:38:04.032Z,25.49
2018-05-24T07:39:04.055Z,25.51
2018-05-24T07:40:04.093Z,25.58
2018-05-24T07:41:04.112Z,25.55
2018-05-24T07:42:04.140Z,25.58
2018-05-24T07:43:04.167Z,25.58
2018-05-24T07:44:04.195Z,25.61
2018-05-24T07:45:04.259Z,25.56
2018-05-24T07:46:04.252Z,25.62
2018-05-24T07:47:04.325Z,25.62
2018-05-24T07:48:04.310Z,25.61
2018-05-24T07:49:04.339Z,25.61
2018-05-24T07:50:04.381Z,25.67
2018-05-24T07:51:04.393Z,25.68
2018-05-24T07:52:04.419Z,25.56
2018-05-24T07:53:04.447Z,25.70
2018-05-24T07:54:04.474Z,25.61
2018-05-24T07:55:04.501Z,25.63
2018-05-24T07:56:04.530Z,25.62
2018-05-24T07:57:04.557Z,25.67
2018-05-24T07:58:04.587Z,25.73
2018-05-24T07:59:04.615Z,25.66
2018-05-24T08:00:04.704Z,25.73
2018-05-24T08:01:04.702Z,25.73
2018-05-24T08:02:04.702Z,25.73
2018-05-24T08:03:04.725Z,25.77
2018-05-24T08:04:04.756Z,25.77
2018-05-24T08:05:04.783Z,25.77
2018-05-24T08:06:04.818Z,25.76
2018-05-24T08:07:04.839Z,25.77
2018-05-24T08:08:04.866Z,25.85
2018-05-24T08:09:04.893Z,25.80
2018-05-24T08:10:04.921Z,25.83
2018-05-24T08:11:04.949Z,25.78
2018-05-24T08:12:04.978Z,25.83
2018-05-24T08:13:05.005Z,25.81
2018-05-24T08:14:05.036Z,25.74
2018-05-24T08:15:05.062Z,25.83
2018-05-24T08:16:05.089Z,25.83
2018-05-24T08:17:05.121Z,25.81
2018-05-24T08:18:05.147Z,25.78
2018-05-24T08:19:05.172Z,25.80
2018-05-24T08:20:05.202Z,25.85
2018-05-24T08:21:05.229Z,25.74
2018-05-24T08:22:05.259Z,25.91
2018-05-24T08:23:05.285Z,25.92
2018-05-24T08:24:05.312Z,25.83
2018-05-24T08:25:05.341Z,25.92
2018-05-24T08:26:05.403Z,25.91
2018-05-24T08:27:05.396Z,25.81
2018-05-24T08:28:05.425Z,25.92
2018-05-24T08:29:05.453Z,25.88
2018-05-24T08:30:05.482Z,25.85
2018-05-24T08:31:05.507Z,25.89
2018-05-24T08:32:05.536Z,25.81
2018-05-24T08:33:05.565Z,25.83
2018-05-24T08:34:05.592Z,25.86
2018-05-24T08:35:05.668Z,25.80
2018-05-24T08:36:05.648Z,25.78
2018-05-24T08:37:05.676Z,25.74
2018-05-24T08:38:05.708Z,25.83
2018-05-24T08:39:05.732Z,25.77
2018-05-24T08:40:05.764Z,25.77
2018-05-24T08:41:05.789Z,25.74
2018-05-24T08:42:05.816Z,25.66
2018-05-24T08:43:05.843Z,25.76
2018-05-24T08:44:05.872Z,25.67
2018-05-24T08:45:05.901Z,25.74
2018-05-24T08:46:05.932Z,25.66
2018-05-24T08:47:05.967Z,25.68
2018-05-24T08:48:05.986Z,25.62
2018-05-24T08:49:06.017Z,25.66
2018-05-24T08:50:06.042Z,25.66
2018-05-24T08:51:06.069Z,25.62
2018-05-24T08:52:14.906Z,25.59
2018-05-24T08:54:13.708Z,25.61
2018-05-24T08:55:13.492Z,25.62
2018-05-24T08:57:33.636Z,25.63
2018-05-24T08:58:33.614Z,25.66
2018-05-24T09:00:28.394Z,25.67
2018-05-24T09:01:28.339Z,25.62
2018-05-24T09:03:51.352Z,25.70
2018-05-24T09:04:51.346Z,25.70
2018-05-24T09:06:44.267Z,25.66
2018-05-24T09:07:44.294Z,25.68
2018-05-24T09:09:50.786Z,25.63
2018-05-24T09:10:51.763Z,25.62
2018-05-24T09:12:43.727Z,25.68
2018-05-24T09:13:43.721Z,25.63
2018-05-24T09:15:36.654Z,25.66
2018-05-24T09:16:36.637Z,25.74
2018-05-24T09:18:31.265Z,25.70
2018-05-24T09:19:31.262Z,25.74
2018-05-24T09:22:03.292Z,25.78
2018-05-24T09:23:03.290Z,25.77
2018-05-24T09:25:35.302Z,25.80
2018-05-24T09:26:35.317Z,25.81
2018-05-24T09:28:28.232Z,25.85
2018-05-24T09:29:28.303Z,25.91
2018-05-24T09:31:21.149Z,25.83
2018-05-24T09:32:21.152Z,25.86
2018-05-24T09:34:14.290Z,25.77
2018-05-24T09:35:14.298Z,25.78
2018-05-24T09:37:07.207Z,25.80
2018-05-24T09:38:07.203Z,25.74
2018-05-24T09:40:14.569Z,25.76
2018-05-24T09:41:14.573Z,25.77
2018-05-24T09:43:07.580Z,25.81
2018-05-24T09:44:07.529Z,25.74
2018-05-24T09:46:00.402Z,25.80
2018-05-24T09:47:00.401Z,25.78
2018-05-24T09:48:53.318Z,25.81
2018-05-24T09:49:53.317Z,25.70
2018-05-24T09:51:46.259Z,25.74
2018-05-24T09:52:46.235Z,25.68
2018-05-24T09:55:06.357Z,25.66
2018-05-24T09:56:06.356Z,25.67
2018-05-24T09:57:59.272Z,25.71
2018-05-24T09:58:59.272Z,25.68
2018-05-24T10:00:52.204Z,25.68
2018-05-24T10:01:52.194Z,25.63
2018-05-24T10:04:12.309Z,25.66
2018-05-24T10:05:12.333Z,25.67
2018-05-24T10:07:32.448Z,25.67
2018-05-24T10:08:32.435Z,25.67
2018-05-24T10:10:25.404Z,25.66
2018-05-24T10:11:25.351Z,25.67
2018-05-24T10:13:18.246Z,25.68
2018-05-24T10:14:18.266Z,25.61
2018-05-24T10:16:51.185Z,25.62
2018-05-24T10:17:51.141Z,25.68
2018-05-24T10:20:11.292Z,25.63
2018-05-24T10:21:11.262Z,25.66
2018-05-24T10:23:31.392Z,25.66
2018-05-24T10:24:31.422Z,25.70
2018-05-24T10:27:04.276Z,25.63
2018-05-24T10:28:04.271Z,25.71
2018-05-24T10:30:11.620Z,25.73
2018-05-24T10:31:11.639Z,25.73
2018-05-24T10:33:31.737Z,25.66
2018-05-24T10:34:31.778Z,25.71
2018-05-24T10:36:24.672Z,25.76
2018-05-24T10:37:24.670Z,25.70
2018-05-24T10:39:17.589Z,25.77
2018-05-24T10:40:17.587Z,25.76
2018-05-24T10:42:10.501Z,25.73
2018-05-24T10:43:10.520Z,25.78
2018-05-24T10:45:03.419Z,25.76
2018-05-24T10:46:03.433Z,25.74
2018-05-24T10:48:36.292Z,25.68
2018-05-24T10:49:36.290Z,25.67
2018-05-24T10:51:56.401Z,25.70
2018-05-24T10:52:56.412Z,25.68
2018-05-24T10:54:49.591Z,25.63
2018-05-24T10:55:49.350Z,25.66
2018-05-24T10:57:42.314Z,25.67
2018-05-24T10:58:42.252Z,25.66
2018-05-24T11:00:49.623Z,25.70
2018-05-24T11:01:49.660Z,25.70
2018-05-24T11:03:42.542Z,25.70
2018-05-24T11:04:42.537Z,25.74
2018-05-24T11:06:35.474Z,25.70
2018-05-24T11:07:35.452Z,25.71
2018-05-24T11:09:28.368Z,25.73
2018-05-24T11:10:28.368Z,25.74
2018-05-24T11:12:21.269Z,25.73
2018-05-24T11:13:21.284Z,25.73
2018-05-24T11:15:14.205Z,25.73
2018-05-24T11:16:14.200Z,25.76
2018-05-24T11:18:07.115Z,25.73
2018-05-24T11:19:07.114Z,25.74
2018-05-24T11:21:00.011Z,25.77
2018-05-24T11:22:00.031Z,25.77
2018-05-24T11:23:52.948Z,25.77
2018-05-24T11:24:52.948Z,25.78
2018-05-24T11:27:13.058Z,25.81
2018-05-24T11:28:13.076Z,25.77
2018-05-24T11:30:57.882Z,25.78
2018-05-24T11:31:57.986Z,25.81
2018-05-24T11:33:51.649Z,25.78
2018-05-24T11:34:51.646Z,25.80
2018-05-24T11:36:44.626Z,25.83
2018-05-24T11:37:44.561Z,25.73
2018-05-24T11:38:44.589Z,25.80
2018-05-24T11:39:44.618Z,25.83
2018-05-24T11:40:44.650Z,25.80
2018-05-24T11:41:44.696Z,25.83
2018-05-24T11:42:44.702Z,25.80
2018-05-24T11:43:44.729Z,25.81
2018-05-24T11:44:44.757Z,25.86
2018-05-24T11:45:44.787Z,25.85
2018-05-24T11:46:44.816Z,25.77
2018-05-24T11:47:44.841Z,25.83
2018-05-24T11:48:44.868Z,25.74
2018-05-24T11:49:44.913Z,25.77
2018-05-24T11:50:44.926Z,25.76
2018-05-24T11:51:44.953Z,25.80
2018-05-24T11:52:44.984Z,25.73
2018-05-24T11:53:45.009Z,25.70
2018-05-24T11:54:45.039Z,25.74
2018-05-24T11:55:45.066Z,25.76
2018-05-24T11:56:45.093Z,25.71
2018-05-24T11:57:45.122Z,25.77
2018-05-24T11:58:45.150Z,25.71
2018-05-24T11:59:45.178Z,25.70
2018-05-24T12:00:45.205Z,25.70
2018-05-24T12:01:45.352Z,25.80
2018-05-24T12:02:45.262Z,25.73
2018-05-24T12:03:45.289Z,25.71
2018-05-24T12:04:45.318Z,25.74
2018-05-24T12:05:45.346Z,25.70
2018-05-24T12:06:45.374Z,25.78
2018-05-24T12:07:45.401Z,25.70
2018-05-24T12:08:45.431Z,25.77
2018-05-24T12:09:45.551Z,25.76
2018-05-24T12:10:45.486Z,25.74
2018-05-24T12:11:45.513Z,25.74
2018-05-24T12:12:45.542Z,25.73
2018-05-24T12:13:45.569Z,25.77
2018-05-24T12:14:45.598Z,25.74
2018-05-24T12:15:45.625Z,25.77
2018-05-24T12:16:45.676Z,25.77
2018-05-24T12:17:45.681Z,25.76
2018-05-24T12:18:45.710Z,25.74
2018-05-24T12:19:45.738Z,25.63
2018-05-24T12:20:45.765Z,25.73
2018-05-24T12:21:45.793Z,25.74
2018-05-24T12:22:45.846Z,25.76
2018-05-24T12:23:45.881Z,25.70
2018-05-24T12:24:45.879Z,25.78
2018-05-24T12:25:45.908Z,25.74
2018-05-24T12:26:45.934Z,25.78
2018-05-24T12:27:45.960Z,25.74
2018-05-24T12:28:45.990Z,25.83
2018-05-24T12:29:46.018Z,25.63
2018-05-24T12:30:46.045Z,25.73
2018-05-24T12:31:46.109Z,25.74
2018-05-24T12:32:46.102Z,25.66
2018-05-24T12:33:46.130Z,25.74
2018-05-24T12:34:46.158Z,25.74
2018-05-24T12:35:46.185Z,25.73
2018-05-24T12:36:46.214Z,25.63
2018-05-24T12:37:46.246Z,25.73
2018-05-24T12:38:46.270Z,25.62
2018-05-24T12:39:46.297Z,25.71
2018-05-24T12:40:46.326Z,25.66
2018-05-24T12:41:46.365Z,25.74
2018-05-24T12:42:46.382Z,25.70
2018-05-24T12:43:46.409Z,25.63
2018-05-24T12:44:46.437Z,25.74
2018-05-24T12:45:46.466Z,25.76
2018-05-24T12:46:46.510Z,25.77
2018-05-24T12:47:46.521Z,25.71
2018-05-24T12:48:46.549Z,25.76
2018-05-24T12:49:46.580Z,25.76
2018-05-24T12:50:46.611Z,25.73
2018-05-24T12:51:46.649Z,25.77
2018-05-24T12:52:46.661Z,25.71
2018-05-24T12:53:46.689Z,25.73
2018-05-24T12:54:46.718Z,25.73
2018-05-24T12:55:46.745Z,25.70
2018-05-24T12:56:46.773Z,25.71
2018-05-24T12:57:46.851Z,25.76
2018-05-24T12:58:46.829Z,25.76
2018-05-24T12:59:46.889Z,25.85
2018-05-24T13:00:46.894Z,25.74
2018-05-24T13:01:46.913Z,25.74
2018-05-24T13:02:46.944Z,25.78
2018-05-24T13:03:47.008Z,25.76
2018-05-24T13:04:46.997Z,25.78
2018-05-24T13:05:47.038Z,25.81
2018-05-24T13:06:47.057Z,25.76
2018-05-24T13:07:47.081Z,25.78
2018-05-24T13:08:47.109Z,25.77
2018-05-24T13:09:47.155Z,25.77
2018-05-24T13:10:47.165Z,25.80
2018-05-24T13:11:47.193Z,25.78
2018-05-24T13:12:47.221Z,25.76
2018-05-24T13:13:47.249Z,25.78
2018-05-24T13:14:47.293Z,25.70
2018-05-24T13:15:47.306Z,25.78
2018-05-24T13:16:47.334Z,25.71
2018-05-24T13:17:47.392Z,25.70
2018-05-24T13:18:47.388Z,25.73
2018-05-24T13:19:47.417Z,25.70
2018-05-24T13:20:47.454Z,25.74
2018-05-24T13:21:47.473Z,25.74
2018-05-24T13:22:47.501Z,25.74
2018-05-24T13:23:47.528Z,25.76
2018-05-24T13:24:47.558Z,25.68
2018-05-24T13:25:47.585Z,25.70
2018-05-24T13:26:47.614Z,25.68
2018-05-24T13:27:47.641Z,25.70
2018-05-24T13:28:47.672Z,25.71
2018-05-24T13:29:47.700Z,25.59
2018-05-24T13:30:47.726Z,25.68
2018-05-24T13:31:47.752Z,25.63
2018-05-24T13:32:47.784Z,25.66
2018-05-24T13:33:47.811Z,25.66
2018-05-24T13:34:47.839Z,25.62
2018-05-24T13:35:47.865Z,25.58
2018-05-24T13:36:47.893Z,25.61
2018-05-24T13:37:47.921Z,25.61
2018-05-24T13:38:47.952Z,25.66
2018-05-24T13:39:48.000Z,25.67
2018-05-24T13:40:48.005Z,25.70
2018-05-24T13:41:48.034Z,25.66
2018-05-24T13:42:48.098Z,25.63
2018-05-24T13:43:48.090Z,25.67
2018-05-24T13:44:48.120Z,25.52
2018-05-24T13:45:48.145Z,25.63
2018-05-24T13:46:48.174Z,25.67
2018-05-24T13:47:48.201Z,25.62
2018-05-24T13:48:48.229Z,25.59
2018-05-24T13:49:48.257Z,25.66
2018-05-24T13:50:48.284Z,25.52
2018-05-24T13:51:48.313Z,25.59